Time;durP1;ratioP1;P1;durP2;ratioP2;P2;SDS_P1;SDS_P2;PMS_P1;PMS_P2;Temp;Humidity;BMP_temperature;BMP_pressure;BME280_temperature;BME280_humidity;BME280_pressure;Samples;Min_cycle;Max_cycle;Signal;HPM_P1;HPM_P2
2024/01/27 00:01:19;;;;;;;;;;;17.70;59.00;;;;;;10143205;28;93429;-46
2024/01/27 00:06:21;;;;;;;;;;;17.70;59.00;;;;;;10150730;28;94441;-45
2024/01/27 00:11:24;;;;;;;;;;;17.60;59.00;;;;;;10148400;28;95929;-43
2024/01/27 00:16:28;;;;;;;;;;;17.60;59.00;;;;;;10140030;28;94137;-47
2024/01/27 00:21:30;;;;;;;;;;;17.60;59.00;;;;;;10152868;28;93542;-43
2024/01/27 00:26:32;;;;;;;;;;;17.50;58.90;;;;;;10148762;28;94477;-45
2024/01/27 00:31:34;;;;;;;;;;;17.50;58.90;;;;;;10129369;28;94479;-46
2024/01/27 00:36:36;;;;;;;;;;;17.50;59.00;;;;;;10145188;28;93549;-44
2024/01/27 00:41:38;;;;;;;;;;;17.40;58.90;;;;;;10138512;28;94077;-45
2024/01/27 00:46:40;;;;;;;;;;;17.40;58.90;;;;;;10145062;28;93537;-44
2024/01/27 00:51:42;;;;;;;;;;;17.40;58.80;;;;;;10163259;28;94814;-43
2024/01/27 00:56:44;;;;;;;;;;;17.30;58.70;;;;;;10145072;28;92566;-44
2024/01/27 01:01:46;;;;;;;;;;;17.30;58.80;;;;;;10155058;28;97011;-44
2024/01/27 01:06:48;;;;;;;;;;;17.30;58.60;;;;;;10139377;28;94444;-45
2024/01/27 01:11:50;;;;;;;;;;;17.20;58.50;;;;;;10143045;28;94945;-48
2024/01/27 01:16:52;;;;;;;;;;;17.20;58.40;;;;;;10139609;28;93372;-45
2024/01/27 01:21:54;;;;;;;;;;;17.20;58.40;;;;;;10142791;28;94405;-44
2024/01/27 01:26:59;;;;;;;;;;;17.20;58.40;;;;;;10148835;28;93460;-45
2024/01/27 01:32:02;;;;;;;;;;;17.20;58.40;;;;;;10139572;28;93925;-48
2024/01/27 01:37:04;;;;;;;;;;;17.10;58.40;;;;;;10167652;28;93829;-48
2024/01/27 01:42:06;;;;;;;;;;;17.10;58.30;;;;;;10145899;28;93475;-43
2024/01/27 01:47:08;;;;;;;;;;;17.10;58.20;;;;;;10142691;28;93776;-45
2024/01/27 01:52:10;;;;;;;;;;;17.10;58.10;;;;;;10142933;28;97109;-43
2024/01/27 01:57:12;;;;;;;;;;;17.10;58.10;;;;;;10148727;28;93466;-47
2024/01/27 02:07:21;;;;;;;;;;;17.10;58.00;;;;;;10056416;28;94155;-69
2024/01/27 02:12:23;;;;;;;;;;;17.10;58.00;;;;;;10083051;28;94142;-69
2024/01/27 02:17:25;;;;;;;;;;;17.00;57.90;;;;;;10080548;28;94597;-69
2024/01/27 02:22:27;;;;;;;;;;;17.00;57.90;;;;;;10082049;28;94081;-69
2024/01/27 02:27:29;;;;;;;;;;;17.00;57.90;;;;;;10100365;28;93673;-70
2024/01/27 02:32:31;;;;;;;;;;;17.00;57.90;;;;;;10082664;28;94336;-69
2024/01/27 02:37:32;;;;;;;;;;;17.00;57.80;;;;;;10096761;28;94830;-69
2024/01/27 02:42:34;;;;;;;;;;;17.00;57.70;;;;;;10081033;28;96836;-69
2024/01/27 02:47:36;;;;;;;;;;;17.00;57.70;;;;;;10082128;28;94184;-69
2024/01/27 02:52:38;;;;;;;;;;;17.00;57.70;;;;;;10083310;28;93425;-69
2024/01/27 02:57:40;;;;;;;;;;;17.00;57.60;;;;;;10082263;28;94469;-72
2024/01/27 03:02:42;;;;;;;;;;;17.00;57.70;;;;;;10081714;28;94148;-70
2024/01/27 03:07:44;;;;;;;;;;;17.00;57.60;;;;;;10095781;28;94368;-69
2024/01/27 03:12:45;;;;;;;;;;;17.00;57.60;;;;;;10083265;28;93901;-69
2024/01/27 03:17:47;;;;;;;;;;;16.90;57.50;;;;;;10080545;28;94000;-69
2024/01/27 03:22:50;;;;;;;;;;;16.90;57.50;;;;;;10079157;28;95076;-69
2024/01/27 03:27:52;;;;;;;;;;;17.00;57.50;;;;;;10087841;28;94286;-69
2024/01/27 03:32:54;;;;;;;;;;;16.90;57.40;;;;;;10109583;28;96246;-70
2024/01/27 03:37:55;;;;;;;;;;;16.90;57.40;;;;;;10100470;28;93277;-67
2024/01/27 03:42:58;;;;;;;;;;;16.90;57.40;;;;;;10100539;28;93577;-70
2024/01/27 03:48:00;;;;;;;;;;;16.90;57.40;;;;;;10098534;28;93507;-70
2024/01/27 03:53:02;;;;;;;;;;;16.90;57.30;;;;;;10097861;28;94095;-70
2024/01/27 03:58:04;;;;;;;;;;;16.90;57.40;;;;;;10120283;28;94506;-70
2024/01/27 04:03:08;;;;;;;;;;;16.80;57.50;;;;;;10090193;28;94301;-70
2024/01/27 04:08:11;;;;;;;;;;;16.80;57.30;;;;;;10078208;28;93209;-70
2024/01/27 04:13:13;;;;;;;;;;;16.80;57.30;;;;;;10087606;28;93437;-70
2024/01/27 04:18:15;;;;;;;;;;;16.80;57.30;;;;;;10087832;28;93897;-70
2024/01/27 04:23:17;;;;;;;;;;;16.70;57.20;;;;;;10098709;28;97046;-69
2024/01/27 04:28:19;;;;;;;;;;;16.70;57.20;;;;;;10091789;28;95985;-70
2024/01/27 04:33:21;;;;;;;;;;;16.70;57.20;;;;;;10085980;28;93447;-70
2024/01/27 04:38:23;;;;;;;;;;;16.70;57.10;;;;;;10085514;28;94774;-69
2024/01/27 04:43:25;;;;;;;;;;;16.70;57.10;;;;;;10115369;28;94777;-70
2024/01/27 04:48:27;;;;;;;;;;;16.60;56.90;;;;;;10078967;28;93437;-69
2024/01/27 04:53:29;;;;;;;;;;;16.60;57.00;;;;;;10087115;28;93930;-69
2024/01/27 04:58:31;;;;;;;;;;;16.60;57.00;;;;;;10086229;28;94004;-69
2024/01/27 05:03:33;;;;;;;;;;;16.60;57.00;;;;;;10086921;28;93867;-69
2024/01/27 05:08:35;;;;;;;;;;;16.60;57.90;;;;;;10079045;28;95184;-69
2024/01/27 05:13:37;;;;;;;;;;;16.60;56.80;;;;;;10082294;28;96618;-69
2024/01/27 05:18:39;;;;;;;;;;;16.60;56.90;;;;;;10086264;28;93087;-70
2024/01/27 05:23:41;;;;;;;;;;;16.70;56.70;;;;;;10087111;28;93635;-69
2024/01/27 05:28:45;;;;;;;;;;;16.70;56.50;;;;;;10087583;28;94809;-70
2024/01/27 05:33:49;;;;;;;;;;;16.70;56.50;;;;;;10088460;28;94464;-69
2024/01/27 05:38:51;;;;;;;;;;;16.70;56.40;;;;;;10091724;28;93705;-70
2024/01/27 05:43:53;;;;;;;;;;;16.70;56.50;;;;;;10098508;28;93433;-70
2024/01/27 05:49:01;;;;;;;;;;;16.90;56.50;;;;;;10097710;28;94194;-70
2024/01/27 05:54:03;;;;;;;;;;;17.10;56.20;;;;;;10091443;28;93867;-70
2024/01/27 05:59:07;;;;;;;;;;;17.30;55.70;;;;;;10084455;28;93788;-69
2024/01/27 06:04:09;;;;;;;;;;;17.40;55.40;;;;;;10073070;28;95918;-69
2024/01/27 06:09:11;;;;;;;;;;;17.50;55.00;;;;;;10082855;28;93836;-69
2024/01/27 06:14:13;;;;;;;;;;;17.50;54.90;;;;;;10084183;28;94721;-70
2024/01/27 06:19:15;;;;;;;;;;;17.50;54.80;;;;;;10082597;28;94583;-69
2024/01/27 06:24:17;;;;;;;;;;;17.40;54.90;;;;;;10083815;28;93816;-69
2024/01/27 06:29:19;;;;;;;;;;;17.40;54.90;;;;;;10082438;28;93323;-70
2024/01/27 06:34:21;;;;;;;;;;;17.40;55.00;;;;;;10082240;28;93518;-70
2024/01/27 06:39:23;;;;;;;;;;;17.30;55.20;;;;;;10086670;28;92526;-72
2024/01/27 06:44:25;;;;;;;;;;;17.30;55.70;;;;;;10080697;28;93910;-72
2024/01/27 06:49:27;;;;;;;;;;;17.40;56.20;;;;;;10087570;28;94718;-74
2024/01/27 06:54:29;;;;;;;;;;;17.60;56.40;;;;;;10076717;28;96094;-70
2024/01/27 06:59:31;;;;;;;;;;;17.90;55.90;;;;;;10080257;28;95468;-72
2024/01/27 07:04:33;;;;;;;;;;;18.20;55.80;;;;;;10088747;28;93335;-71
2024/01/27 07:09:35;;;;;;;;;;;18.30;55.60;;;;;;10086177;28;94126;-74
2024/01/27 07:14:36;;;;;;;;;;;18.50;55.70;;;;;;10084068;28;96330;-73
2024/01/27 07:19:38;;;;;;;;;;;18.80;55.50;;;;;;10090144;28;93991;-74
2024/01/27 07:24:41;;;;;;;;;;;18.90;55.20;;;;;;10085833;28;94563;-72
2024/01/27 07:29:43;;;;;;;;;;;19.00;55.10;;;;;;10090048;28;96731;-71
2024/01/27 07:34:45;;;;;;;;;;;18.90;55.20;;;;;;10085124;28;94632;-71
2024/01/27 07:39:48;;;;;;;;;;;18.90;55.30;;;;;;10086233;28;94895;-71
2024/01/27 07:44:50;;;;;;;;;;;18.80;55.50;;;;;;10104737;28;95857;-70
2024/01/27 07:49:53;;;;;;;;;;;18.70;55.70;;;;;;10125723;28;94700;-70
2024/01/27 07:54:55;;;;;;;;;;;18.60;55.90;;;;;;10124886;28;93495;-71
2024/01/27 07:59:57;;;;;;;;;;;18.50;56.10;;;;;;10111162;28;94791;-71
2024/01/27 08:04:59;;;;;;;;;;;18.30;56.20;;;;;;10088565;28;93921;-72
2024/01/27 08:10:01;;;;;;;;;;;18.30;56.30;;;;;;10092425;28;94585;-72
2024/01/27 08:15:03;;;;;;;;;;;18.40;56.10;;;;;;10089444;28;94403;-72
2024/01/27 08:20:05;;;;;;;;;;;18.50;55.80;;;;;;10088485;28;94018;-72
2024/01/27 08:25:07;;;;;;;;;;;18.70;55.40;;;;;;10086077;28;94250;-72
2024/01/27 08:30:10;;;;;;;;;;;18.90;54.90;;;;;;10087349;28;94544;-72
2024/01/27 08:35:11;;;;;;;;;;;18.90;54.70;;;;;;10085405;28;96984;-72
2024/01/27 08:40:13;;;;;;;;;;;18.90;54.50;;;;;;10087498;28;94961;-72
2024/01/27 08:45:16;;;;;;;;;;;18.80;54.60;;;;;;10086947;28;93780;-71
2024/01/27 08:50:18;;;;;;;;;;;18.90;54.50;;;;;;10088228;28;94561;-70
2024/01/27 08:55:23;;;;;;;;;;;18.90;54.40;;;;;;10088069;28;93511;-71
2024/01/27 09:00:25;;;;;;;;;;;18.80;54.30;;;;;;10083277;28;94444;-71
2024/01/27 09:05:27;;;;;;;;;;;18.70;54.30;;;;;;10086996;28;93574;-71
2024/01/27 09:10:30;;;;;;;;;;;18.70;54.50;;;;;;10086529;28;94196;-72
2024/01/27 09:15:31;;;;;;;;;;;18.70;54.40;;;;;;10086546;28;94114;-71
2024/01/27 09:20:33;;;;;;;;;;;18.70;54.30;;;;;;10086833;28;95689;-71
2024/01/27 09:25:35;;;;;;;;;;;18.70;54.30;;;;;;10114448;28;95453;-72
2024/01/27 09:30:37;;;;;;;;;;;18.60;54.40;;;;;;10086605;28;93653;-72
2024/01/27 09:35:40;;;;;;;;;;;18.70;54.30;;;;;;10086856;28;93908;-71
2024/01/27 09:40:42;;;;;;;;;;;18.80;54.10;;;;;;10088489;28;92911;-71
2024/01/27 09:45:44;;;;;;;;;;;18.80;54.10;;;;;;10090509;28;93473;-72
2024/01/27 09:50:47;;;;;;;;;;;18.70;54.10;;;;;;10095296;28;93627;-71
2024/01/27 09:55:50;;;;;;;;;;;18.70;54.30;;;;;;10087168;28;92866;-71
2024/01/27 10:00:52;;;;;;;;;;;18.80;54.10;;;;;;10096184;28;92733;-72
2024/01/27 10:05:55;;;;;;;;;;;18.80;54.10;;;;;;10092038;28;94596;-71
2024/01/27 10:10:57;;;;;;;;;;;18.70;54.00;;;;;;10088363;28;94538;-70
2024/01/27 10:15:59;;;;;;;;;;;18.70;54.20;;;;;;10086063;28;95994;-71
2024/01/27 10:21:18;;;;;;;;;;;18.70;54.30;;;;;;10086869;28;96193;-72
2024/01/27 10:26:20;;;;;;;;;;;18.70;54.20;;;;;;10083394;28;94504;-71
2024/01/27 10:31:33;;;;;;;;;;;18.70;54.20;;;;;;10085926;28;94626;-72
2024/01/27 10:36:41;;;;;;;;;;;18.70;54.20;;;;;;10083373;28;94986;-71
2024/01/27 10:41:47;;;;;;;;;;;18.60;54.40;;;;;;10082642;28;92792;-71
2024/01/27 10:46:49;;;;;;;;;;;18.60;54.30;;;;;;10084269;28;93577;-71
2024/01/27 10:51:58;;;;;;;;;;;18.70;54.30;;;;;;10085659;28;93952;-72
2024/01/27 10:57:01;;;;;;;;;;;18.70;54.20;;;;;;10083706;28;93259;-70
2024/01/27 11:02:04;;;;;;;;;;;18.60;54.30;;;;;;10078901;28;93945;-71
2024/01/27 11:07:07;;;;;;;;;;;18.60;54.40;;;;;;10080317;28;95851;-71
2024/01/27 11:12:12;;;;;;;;;;;18.70;54.30;;;;;;10073693;28;93426;-71
2024/01/27 11:17:17;;;;;;;;;;;18.70;54.20;;;;;;10083210;28;92866;-71
2024/01/27 11:22:26;;;;;;;;;;;18.60;54.20;;;;;;10084366;28;93554;-71
2024/01/27 11:27:29;;;;;;;;;;;18.60;54.40;;;;;;10078154;28;93888;-71
2024/01/27 11:32:31;;;;;;;;;;;18.60;54.30;;;;;;10083697;28;93724;-71
2024/01/27 11:37:33;;;;;;;;;;;18.70;54.20;;;;;;10082973;28;94417;-71
2024/01/27 11:42:35;;;;;;;;;;;18.70;54.10;;;;;;10082894;28;93345;-72
2024/01/27 11:47:37;;;;;;;;;;;18.60;54.20;;;;;;10087774;28;94313;-71
2024/01/27 11:52:39;;;;;;;;;;;18.60;54.30;;;;;;10094229;28;94601;-70
2024/01/27 11:57:41;;;;;;;;;;;18.70;54.20;;;;;;10089735;28;96810;-71
2024/01/27 12:02:43;;;;;;;;;;;18.60;54.10;;;;;;10090592;28;93982;-70
2024/01/27 12:07:45;;;;;;;;;;;18.60;54.10;;;;;;10082760;28;94809;-71
2024/01/27 12:12:47;;;;;;;;;;;18.60;54.30;;;;;;10087399;28;94887;-71
2024/01/27 12:17:50;;;;;;;;;;;18.60;54.20;;;;;;10088266;28;94135;-71
2024/01/27 12:23:04;;;;;;;;;;;18.70;54.20;;;;;;10087222;28;93338;-71
2024/01/27 12:28:07;;;;;;;;;;;18.70;54.20;;;;;;10088396;28;94436;-72
2024/01/27 12:33:11;;;;;;;;;;;18.60;54.20;;;;;;10087576;28;95355;-70
2024/01/27 12:38:13;;;;;;;;;;;18.60;54.40;;;;;;10074538;28;94427;-71
2024/01/27 12:43:15;;;;;;;;;;;18.70;54.30;;;;;;10086593;28;93808;-73
2024/01/27 12:48:17;;;;;;;;;;;18.70;54.50;;;;;;10082434;28;96070;-70
2024/01/27 12:53:20;;;;;;;;;;;18.70;54.50;;;;;;10083791;28;94423;-71
2024/01/27 12:58:21;;;;;;;;;;;18.60;54.60;;;;;;10083713;28;94424;-73
2024/01/27 13:03:23;;;;;;;;;;;18.60;55.00;;;;;;10082858;28;94279;-70
2024/01/27 13:08:25;;;;;;;;;;;18.50;55.20;;;;;;10087342;28;93477;-71
2024/01/27 13:13:27;;;;;;;;;;;18.50;55.50;;;;;;10077556;28;93444;-71
2024/01/27 13:18:29;;;;;;;;;;;18.60;55.30;;;;;;10080559;28;93492;-72
2024/01/27 13:23:31;;;;;;;;;;;18.60;55.20;;;;;;10085395;28;93833;-71
2024/01/27 13:28:33;;;;;;;;;;;18.50;55.00;;;;;;10084384;28;93466;-71
2024/01/27 13:33:35;;;;;;;;;;;18.50;55.20;;;;;;10083003;28;94075;-72
2024/01/27 13:38:40;;;;;;;;;;;18.50;55.20;;;;;;10094763;28;96045;-71
2024/01/27 13:43:42;;;;;;;;;;;18.50;55.50;;;;;;10085808;28;93464;-72
2024/01/27 13:48:44;;;;;;;;;;;18.60;55.20;;;;;;10083091;28;94593;-72
2024/01/27 13:53:46;;;;;;;;;;;18.60;55.20;;;;;;10116436;28;94510;-72
2024/01/27 13:58:53;;;;;;;;;;;18.60;55.00;;;;;;10095395;28;92520;-72
2024/01/27 14:03:54;;;;;;;;;;;18.50;55.10;;;;;;10094160;28;93861;-72
2024/01/27 14:08:57;;;;;;;;;;;18.40;55.10;;;;;;10083476;28;93738;-71
2024/01/27 14:13:58;;;;;;;;;;;18.30;55.60;;;;;;10084224;28;93067;-71
2024/01/27 14:19:00;;;;;;;;;;;18.30;56.20;;;;;;10081625;28;93696;-73
2024/01/27 14:24:05;;;;;;;;;;;18.30;56.50;;;;;;10079510;28;94832;-70
2024/01/27 14:29:07;;;;;;;;;;;18.30;58.80;;;;;;10069483;28;97258;-74
2024/01/27 14:34:09;;;;;;;;;;;18.30;58.90;;;;;;10083282;28;94735;-76
2024/01/27 14:39:12;;;;;;;;;;;18.20;58.30;;;;;;10078035;28;93894;-74
2024/01/27 14:44:14;;;;;;;;;;;18.30;58.10;;;;;;10083596;28;94363;-73
2024/01/27 14:49:16;;;;;;;;;;;18.60;58.00;;;;;;10087547;28;94451;-74
2024/01/27 14:54:18;;;;;;;;;;;18.90;57.60;;;;;;10081576;28;94412;-72
2024/01/27 14:59:22;;;;;;;;;;;19.20;57.30;;;;;;10111318;28;93335;-73
2024/01/27 15:04:27;;;;;;;;;;;19.30;57.80;;;;;;10082073;28;92878;-74
2024/01/27 15:09:29;;;;;;;;;;;19.40;56.80;;;;;;10080169;28;93998;-74
2024/01/27 15:14:31;;;;;;;;;;;19.40;56.80;;;;;;10079190;28;96959;-76
2024/01/27 15:19:33;;;;;;;;;;;19.30;56.70;;;;;;10103394;28;96865;-75
2024/01/27 15:24:42;;;;;;;;;;;19.20;56.70;;;;;;10083207;28;93364;-73
2024/01/27 15:29:44;;;;;;;;;;;19.20;57.00;;;;;;10112978;28;94640;-75
2024/01/27 15:34:46;;;;;;;;;;;19.20;57.10;;;;;;10085378;28;93287;-76
2024/01/27 15:39:51;;;;;;;;;;;19.30;57.10;;;;;;10089705;28;93537;-73
2024/01/27 15:44:53;;;;;;;;;;;19.40;56.80;;;;;;10089871;28;96140;-75
2024/01/27 15:50:02;;;;;;;;;;;19.60;56.90;;;;;;10113837;28;94417;-74
2024/01/27 15:55:05;;;;;;;;;;;19.80;57.70;;;;;;10127999;28;92908;-77
2024/01/27 16:00:10;;;;;;;;;;;19.90;56.50;;;;;;10124398;28;92619;-77
2024/01/27 16:05:12;;;;;;;;;;;19.90;56.30;;;;;;10142329;28;93825;-75
2024/01/27 16:10:14;;;;;;;;;;;19.90;56.30;;;;;;10085903;28;96034;-74
2024/01/27 16:15:16;;;;;;;;;;;19.70;56.40;;;;;;10084017;28;93871;-77
2024/01/27 16:20:19;;;;;;;;;;;19.70;56.50;;;;;;10082793;28;93843;-74
2024/01/27 16:25:20;;;;;;;;;;;19.80;56.50;;;;;;10067600;28;94871;-72
2024/01/27 16:30:22;;;;;;;;;;;19.70;56.00;;;;;;10085075;28;93708;-71
2024/01/27 16:35:24;;;;;;;;;;;19.60;55.80;;;;;;10091009;28;94477;-70
2024/01/27 16:40:26;;;;;;;;;;;19.50;57.80;;;;;;10095043;28;94289;-73
2024/01/27 16:45:32;;;;;;;;;;;19.60;60.80;;;;;;10097200;28;93412;-71
2024/01/27 16:50:34;;;;;;;;;;;19.70;63.40;;;;;;10086560;28;93831;-71
2024/01/27 16:55:37;;;;;;;;;;;19.90;60.70;;;;;;10090870;28;93453;-70
2024/01/27 17:00:39;;;;;;;;;;;20.10;59.70;;;;;;10097008;28;95620;-72
2024/01/27 17:05:41;;;;;;;;;;;20.20;59.10;;;;;;10092669;28;94638;-71
2024/01/27 17:10:43;;;;;;;;;;;20.20;58.80;;;;;;10078928;28;94411;-71
2024/01/27 17:15:45;;;;;;;;;;;20.10;58.90;;;;;;10115681;28;94272;-70
2024/01/27 17:20:47;;;;;;;;;;;20.00;58.40;;;;;;10078065;28;93641;-70
2024/01/27 17:25:49;;;;;;;;;;;19.80;58.30;;;;;;10082251;28;93990;-70
2024/01/27 17:30:51;;;;;;;;;;;19.70;58.30;;;;;;10100687;28;94358;-70
2024/01/27 17:35:53;;;;;;;;;;;19.60;58.30;;;;;;10077975;28;93204;-69
2024/01/27 17:40:54;;;;;;;;;;;19.50;58.40;;;;;;10084638;28;94923;-69
2024/01/27 17:45:56;;;;;;;;;;;19.40;58.40;;;;;;10090001;28;93727;-71
2024/01/27 17:50:58;;;;;;;;;;;19.30;58.70;;;;;;10098628;28;95662;-71
2024/01/27 17:56:00;;;;;;;;;;;19.30;58.90;;;;;;10090623;28;93295;-71
2024/01/27 18:01:02;;;;;;;;;;;19.30;58.70;;;;;;10093745;28;93692;-70
2024/01/27 18:06:04;;;;;;;;;;;19.40;58.50;;;;;;10093231;28;94783;-70
2024/01/27 18:11:06;;;;;;;;;;;19.50;58.40;;;;;;10101827;28;92886;-71
2024/01/27 18:16:17;;;;;;;;;;;19.60;58.00;;;;;;10098775;28;93760;-70
2024/01/27 18:21:19;;;;;;;;;;;19.70;57.90;;;;;;10092526;28;94364;-71
2024/01/27 18:26:21;;;;;;;;;;;19.60;57.80;;;;;;10093404;28;93524;-71
2024/01/27 18:31:23;;;;;;;;;;;19.60;57.90;;;;;;10091044;28;93990;-71
2024/01/27 18:36:25;;;;;;;;;;;19.60;57.90;;;;;;10084807;28;94565;-71
2024/01/27 18:41:27;;;;;;;;;;;19.60;57.70;;;;;;10082717;28;97194;-71
2024/01/27 18:46:29;;;;;;;;;;;19.60;57.60;;;;;;10086788;28;93779;-71
2024/01/27 18:51:30;;;;;;;;;;;19.50;58.00;;;;;;10084068;28;93820;-71
2024/01/27 18:56:32;;;;;;;;;;;19.50;57.80;;;;;;10094672;28;94755;-71
2024/01/27 19:01:36;;;;;;;;;;;19.50;57.70;;;;;;10086542;28;93702;-71
2024/01/27 19:06:38;;;;;;;;;;;19.60;57.60;;;;;;10083799;28;93410;-71
2024/01/27 19:11:40;;;;;;;;;;;19.50;57.60;;;;;;10084350;28;94590;-71
2024/01/27 19:16:42;;;;;;;;;;;19.50;57.70;;;;;;10080909;28;93930;-71
2024/01/27 19:21:44;;;;;;;;;;;19.50;57.80;;;;;;10090482;28;93874;-71
2024/01/27 19:26:46;;;;;;;;;;;19.50;57.70;;;;;;10087555;28;94446;-71
2024/01/27 19:31:49;;;;;;;;;;;19.50;57.60;;;;;;10086285;28;96425;-71
2024/01/27 19:36:51;;;;;;;;;;;19.50;57.90;;;;;;10086100;28;93641;-70
2024/01/27 19:41:53;;;;;;;;;;;19.50;57.80;;;;;;10097029;28;94888;-70
2024/01/27 19:46:55;;;;;;;;;;;19.50;57.80;;;;;;10095111;28;94271;-69
2024/01/27 19:51:57;;;;;;;;;;;19.60;57.70;;;;;;10089682;28;93800;-70
2024/01/27 19:56:59;;;;;;;;;;;19.60;57.60;;;;;;10092132;28;95006;-71
2024/01/27 20:02:01;;;;;;;;;;;19.60;57.50;;;;;;10079550;28;94523;-71
2024/01/27 20:07:03;;;;;;;;;;;19.70;57.00;;;;;;10092833;28;93854;-70
2024/01/27 20:12:06;;;;;;;;;;;19.80;56.60;;;;;;10094924;28;93500;-71
2024/01/27 20:17:08;;;;;;;;;;;19.80;56.40;;;;;;10107433;28;93536;-71
2024/01/27 20:22:10;;;;;;;;;;;19.70;56.20;;;;;;10093035;28;96805;-70
2024/01/27 20:27:12;;;;;;;;;;;19.70;56.20;;;;;;10090592;28;93638;-71
2024/01/27 20:32:15;;;;;;;;;;;19.80;56.00;;;;;;10088587;28;93887;-70
2024/01/27 20:37:17;;;;;;;;;;;19.80;55.80;;;;;;10094218;28;94523;-70
2024/01/27 20:42:19;;;;;;;;;;;19.80;55.80;;;;;;10087377;28;93222;-70
2024/01/27 20:47:21;;;;;;;;;;;19.70;55.70;;;;;;10096680;28;93417;-70
2024/01/27 20:52:23;;;;;;;;;;;19.70;55.90;;;;;;10079082;28;93673;-70
2024/01/27 20:57:25;;;;;;;;;;;19.60;56.20;;;;;;10082308;28;95110;-70
2024/01/27 21:02:27;;;;;;;;;;;19.70;57.10;;;;;;10115128;28;93717;-71
2024/01/27 21:07:29;;;;;;;;;;;19.70;55.90;;;;;;10091391;28;93746;-70
2024/01/27 21:12:31;;;;;;;;;;;19.60;55.90;;;;;;10094744;28;97285;-70
2024/01/27 21:17:33;;;;;;;;;;;19.50;55.90;;;;;;10093477;28;94895;-69
2024/01/27 21:22:36;;;;;;;;;;;19.40;56.00;;;;;;10092445;28;113895;-69
2024/01/27 21:27:39;;;;;;;;;;;19.40;56.10;;;;;;10094229;28;94167;-68
2024/01/27 21:32:41;;;;;;;;;;;19.30;56.20;;;;;;10085669;28;93886;-68
2024/01/27 21:37:44;;;;;;;;;;;19.20;56.40;;;;;;10092434;28;92812;-69
2024/01/27 21:42:46;;;;;;;;;;;19.10;56.50;;;;;;10085219;28;93829;-69
2024/01/27 21:47:49;;;;;;;;;;;19.00;56.60;;;;;;10090400;28;92756;-70
2024/01/27 21:52:51;;;;;;;;;;;18.90;56.60;;;;;;10077677;28;93514;-69
2024/01/27 21:57:54;;;;;;;;;;;18.90;56.70;;;;;;10085027;28;94375;-69
2024/01/27 22:02:56;;;;;;;;;;;18.80;56.70;;;;;;10083177;28;96173;-69
2024/01/27 22:07:58;;;;;;;;;;;18.70;56.70;;;;;;10089511;28;94020;-69
2024/01/27 22:13:00;;;;;;;;;;;18.60;56.70;;;;;;10090702;28;93755;-70
2024/01/27 22:18:09;;;;;;;;;;;18.60;56.90;;;;;;10096364;28;93471;-69
2024/01/27 22:23:12;;;;;;;;;;;18.60;56.90;;;;;;10099595;28;94711;-69
2024/01/27 22:28:19;;;;;;;;;;;18.50;56.70;;;;;;10091488;28;96330;-69
2024/01/27 22:33:23;;;;;;;;;;;18.40;56.60;;;;;;10088467;28;94980;-70
2024/01/27 22:38:25;;;;;;;;;;;18.40;56.60;;;;;;10094013;28;92861;-69
2024/01/27 22:43:27;;;;;;;;;;;18.40;56.80;;;;;;10087084;28;94457;-70
2024/01/27 22:48:29;;;;;;;;;;;18.40;56.60;;;;;;10081709;28;95394;-70
2024/01/27 22:53:31;;;;;;;;;;;18.30;56.50;;;;;;10079596;28;95877;-71
2024/01/27 22:58:33;;;;;;;;;;;18.20;56.20;;;;;;10083042;28;93821;-71
2024/01/27 23:03:35;;;;;;;;;;;18.20;56.90;;;;;;10088072;28;97004;-71
2024/01/27 23:08:37;;;;;;;;;;;18.20;56.90;;;;;;10084322;28;93570;-72
2024/01/27 23:13:39;;;;;;;;;;;18.20;56.60;;;;;;10084870;28;93423;-72
2024/01/27 23:18:41;;;;;;;;;;;18.10;56.60;;;;;;10080871;28;97811;-72
2024/01/27 23:23:43;;;;;;;;;;;18.10;56.20;;;;;;10082268;28;93595;-72
2024/01/27 23:28:45;;;;;;;;;;;18.10;56.00;;;;;;10081746;28;93714;-71
2024/01/27 23:33:47;;;;;;;;;;;18.10;55.70;;;;;;10081671;28;93467;-71
2024/01/27 23:38:49;;;;;;;;;;;18.00;55.40;;;;;;10079794;28;94220;-71
2024/01/27 23:43:53;;;;;;;;;;;18.00;55.10;;;;;;10081563;28;96052;-71
2024/01/27 23:48:55;;;;;;;;;;;18.00;54.90;;;;;;10088696;28;94701;-70
2024/01/27 23:53:57;;;;;;;;;;;17.90;54.60;;;;;;10098547;28;93638;-71
2024/01/27 23:58:59;;;;;;;;;;;17.90;55.10;;;;;;10088038;28;94508;-71
